sensor_id;sensor_type;location;lat;lon;timestamp;temperature;humidity
23079;DHT22;11707;50.830;4.364;2023-02-05T00:02:01;9.50;99.90
23079;DHT22;11707;50.830;4.364;2023-02-05T00:04:27;9.50;99.90
23079;DHT22;11707;50.830;4.364;2023-02-05T00:06:52;9.50;99.90
23079;DHT22;11707;50.830;4.364;2023-02-05T00:09:18;9.50;99.90
23079;DHT22;11707;50.830;4.364;2023-02-05T00:11:44;9.40;99.90
23079;DHT22;11707;50.830;4.364;2023-02-05T00:14:10;9.40;99.90
23079;DHT22;11707;50.830;4.364;2023-02-05T00:16:35;9.50;99.90
23079;DHT22;11707;50.830;4.364;2023-02-05T00:19:01;9.60;99.90
23079;DHT22;11707;50.830;4.364;2023-02-05T00:21:27;9.60;99.90
23079;DHT22;11707;50.830;4.364;2023-02-05T00:23:53;9.50;99.90
23079;DHT22;11707;50.830;4.364;2023-02-05T00:26:19;9.30;99.90
23079;DHT22;11707;50.830;4.364;2023-02-05T00:28:45;9.40;99.90
23079;DHT22;11707;50.830;4.364;2023-02-05T00:31:12;9.50;99.90
23079;DHT22;11707;50.830;4.364;2023-02-05T00:33:38;9.70;99.90
23079;DHT22;11707;50.830;4.364;2023-02-05T00:36:04;9.70;99.90
23079;DHT22;11707;50.830;4.364;2023-02-05T00:38:31;9.40;99.90
23079;DHT22;11707;50.830;4.364;2023-02-05T00:40:57;9.30;99.90
23079;DHT22;11707;50.830;4.364;2023-02-05T00:43:22;9.20;99.90
23079;DHT22;11707;50.830;4.364;2023-02-05T00:45:48;9.20;99.90
23079;DHT22;11707;50.830;4.364;2023-02-05T00:48:14;9.30;99.90
23079;DHT22;11707;50.830;4.364;2023-02-05T00:50:40;9.50;99.90
23079;DHT22;11707;50.830;4.364;2023-02-05T00:53:06;9.40;99.90
23079;DHT22;11707;50.830;4.364;2023-02-05T00:55:32;9.30;99.90
23079;DHT22;11707;50.830;4.364;2023-02-05T00:57:58;9.50;99.90
23079;DHT22;11707;50.830;4.364;2023-02-05T01:00:26;9.40;99.90
23079;DHT22;11707;50.830;4.364;2023-02-05T01:02:53;9.30;99.90
23079;DHT22;11707;50.830;4.364;2023-02-05T01:05:19;9.10;99.90
23079;DHT22;11707;50.830;4.364;2023-02-05T01:07:45;9.00;99.90
23079;DHT22;11707;50.830;4.364;2023-02-05T01:10:11;9.20;99.90
23079;DHT22;11707;50.830;4.364;2023-02-05T01:12:37;9.20;99.90
23079;DHT22;11707;50.830;4.364;2023-02-05T01:15:05;9.10;99.90
23079;DHT22;11707;50.830;4.364;2023-02-05T01:17:31;9.10;99.90
23079;DHT22;11707;50.830;4.364;2023-02-05T01:19:57;9.10;99.90
23079;DHT22;11707;50.830;4.364;2023-02-05T01:22:23;9.10;99.90
23079;DHT22;11707;50.830;4.364;2023-02-05T01:24:49;9.20;99.90
23079;DHT22;11707;50.830;4.364;2023-02-05T01:27:15;9.10;99.90
23079;DHT22;11707;50.830;4.364;2023-02-05T01:29:40;9.00;99.90
23079;DHT22;11707;50.830;4.364;2023-02-05T01:32:06;8.90;99.90
23079;DHT22;11707;50.830;4.364;2023-02-05T01:34:32;8.90;99.90
23079;DHT22;11707;50.830;4.364;2023-02-05T01:36:58;8.90;99.90
23079;DHT22;11707;50.830;4.364;2023-02-05T01:39:24;8.80;99.90
23079;DHT22;11707;50.830;4.364;2023-02-05T01:41:49;8.70;99.90
23079;DHT22;11707;50.830;4.364;2023-02-05T01:44:18;8.80;99.90
23079;DHT22;11707;50.830;4.364;2023-02-05T01:46:47;8.70;99.90
23079;DHT22;11707;50.830;4.364;2023-02-05T01:49:29;8.60;99.90
23079;DHT22;11707;50.830;4.364;2023-02-05T01:52:00;8.60;99.90
23079;DHT22;11707;50.830;4.364;2023-02-05T01:54:29;8.70;99.90
23079;DHT22;11707;50.830;4.364;2023-02-05T01:57:04;8.70;99.90
23079;DHT22;11707;50.830;4.364;2023-02-05T01:59:33;8.70;99.90
23079;DHT22;11707;50.830;4.364;2023-02-05T02:02:01;8.50;99.90
23079;DHT22;11707;50.830;4.364;2023-02-05T02:04:44;8.50;99.90
23079;DHT22;11707;50.830;4.364;2023-02-05T02:07:16;8.70;99.90
23079;DHT22;11707;50.830;4.364;2023-02-05T02:09:44;8.80;99.90
23079;DHT22;11707;50.830;4.364;2023-02-05T02:12:13;8.60;99.90
23079;DHT22;11707;50.830;4.364;2023-02-05T02:14:42;8.60;99.90
23079;DHT22;11707;50.830;4.364;2023-02-05T02:17:11;8.50;99.90
23079;DHT22;11707;50.830;4.364;2023-02-05T02:19:44;8.50;99.90
23079;DHT22;11707;50.830;4.364;2023-02-05T02:28:28;8.50;99.90
23079;DHT22;11707;50.830;4.364;2023-02-05T02:36:00;8.70;99.90
23079;DHT22;11707;50.830;4.364;2023-02-05T02:39:09;8.70;99.90
23079;DHT22;11707;50.830;4.364;2023-02-05T02:41:50;8.70;99.90
23079;DHT22;11707;50.830;4.364;2023-02-05T02:44:19;8.50;99.90
23079;DHT22;11707;50.830;4.364;2023-02-05T02:46:49;8.60;99.90
23079;DHT22;11707;50.830;4.364;2023-02-05T02:49:21;8.60;99.90
23079;DHT22;11707;50.830;4.364;2023-02-05T02:51:50;8.50;99.90
23079;DHT22;11707;50.830;4.364;2023-02-05T02:54:17;8.50;99.90
23079;DHT22;11707;50.830;4.364;2023-02-05T02:56:47;8.50;99.90
23079;DHT22;11707;50.830;4.364;2023-02-05T02:59:16;8.40;99.90
23079;DHT22;11707;50.830;4.364;2023-02-05T03:01:44;8.40;99.90
23079;DHT22;11707;50.830;4.364;2023-02-05T03:04:20;8.40;99.90
23079;DHT22;11707;50.830;4.364;2023-02-05T03:06:50;8.40;99.90
23079;DHT22;11707;50.830;4.364;2023-02-05T03:11:42;8.40;99.90
23079;DHT22;11707;50.830;4.364;2023-02-05T03:14:07;8.40;99.90
23079;DHT22;11707;50.830;4.364;2023-02-05T03:16:33;8.40;99.90
23079;DHT22;11707;50.830;4.364;2023-02-05T03:18:59;8.50;99.90
23079;DHT22;11707;50.830;4.364;2023-02-05T03:21:31;8.40;99.90
23079;DHT22;11707;50.830;4.364;2023-02-05T03:23:58;8.40;99.90
23079;DHT22;11707;50.830;4.364;2023-02-05T03:26:27;8.30;99.90
23079;DHT22;11707;50.830;4.364;2023-02-05T03:28:55;8.30;99.90
23079;DHT22;11707;50.830;4.364;2023-02-05T03:31:27;8.30;99.90
23079;DHT22;11707;50.830;4.364;2023-02-05T03:42:45;8.40;99.90
23079;DHT22;11707;50.830;4.364;2023-02-05T03:45:30;8.30;99.90
23079;DHT22;11707;50.830;4.364;2023-02-05T03:48:13;8.40;99.90
23079;DHT22;11707;50.830;4.364;2023-02-05T03:51:07;8.20;99.90
23079;DHT22;11707;50.830;4.364;2023-02-05T03:56:33;8.30;99.90
23079;DHT22;11707;50.830;4.364;2023-02-05T03:59:01;8.30;99.90
23079;DHT22;11707;50.830;4.364;2023-02-05T04:01:28;8.20;99.90
23079;DHT22;11707;50.830;4.364;2023-02-05T04:03:54;8.10;99.90
23079;DHT22;11707;50.830;4.364;2023-02-05T04:06:20;8.20;99.90
23079;DHT22;11707;50.830;4.364;2023-02-05T04:08:45;8.30;99.90
23079;DHT22;11707;50.830;4.364;2023-02-05T04:11:11;8.30;99.90
23079;DHT22;11707;50.830;4.364;2023-02-05T04:13:37;8.20;99.90
23079;DHT22;11707;50.830;4.364;2023-02-05T04:16:03;8.20;99.90
23079;DHT22;11707;50.830;4.364;2023-02-05T04:18:28;8.10;99.90
23079;DHT22;11707;50.830;4.364;2023-02-05T04:20:54;8.20;99.90
23079;DHT22;11707;50.830;4.364;2023-02-05T04:23:20;8.10;99.90
23079;DHT22;11707;50.830;4.364;2023-02-05T04:25:45;8.10;99.90
23079;DHT22;11707;50.830;4.364;2023-02-05T04:28:11;8.00;99.90
23079;DHT22;11707;50.830;4.364;2023-02-05T04:30:38;8.10;99.90
23079;DHT22;11707;50.830;4.364;2023-02-05T04:33:04;8.00;99.90
23079;DHT22;11707;50.830;4.364;2023-02-05T04:35:29;8.00;99.90
23079;DHT22;11707;50.830;4.364;2023-02-05T04:37:55;8.00;99.90
23079;DHT22;11707;50.830;4.364;2023-02-05T04:40:21;8.00;99.90
23079;DHT22;11707;50.830;4.364;2023-02-05T04:42:47;8.00;99.90
23079;DHT22;11707;50.830;4.364;2023-02-05T04:45:12;8.10;99.90
23079;DHT22;11707;50.830;4.364;2023-02-05T04:47:38;8.00;99.90
23079;DHT22;11707;50.830;4.364;2023-02-05T04:50:04;8.00;99.90
23079;DHT22;11707;50.830;4.364;2023-02-05T04:52:30;8.00;99.90
23079;DHT22;11707;50.830;4.364;2023-02-05T04:54:55;7.80;99.90
23079;DHT22;11707;50.830;4.364;2023-02-05T04:57:21;7.80;99.90
23079;DHT22;11707;50.830;4.364;2023-02-05T04:59:48;7.80;99.90
23079;DHT22;11707;50.830;4.364;2023-02-05T05:02:14;7.70;99.90
23079;DHT22;11707;50.830;4.364;2023-02-05T05:04:40;7.70;99.90
23079;DHT22;11707;50.830;4.364;2023-02-05T05:07:06;7.70;99.90
23079;DHT22;11707;50.830;4.364;2023-02-05T05:09:32;7.60;99.90
23079;DHT22;11707;50.830;4.364;2023-02-05T05:11:58;7.60;99.90
23079;DHT22;11707;50.830;4.364;2023-02-05T05:14:23;7.60;99.90
23079;DHT22;11707;50.830;4.364;2023-02-05T05:16:49;7.60;99.90
23079;DHT22;11707;50.830;4.364;2023-02-05T05:19:15;7.50;99.90
23079;DHT22;11707;50.830;4.364;2023-02-05T05:21:41;7.40;99.90
23079;DHT22;11707;50.830;4.364;2023-02-05T05:24:06;7.40;99.90
23079;DHT22;11707;50.830;4.364;2023-02-05T05:26:32;7.30;99.90
23079;DHT22;11707;50.830;4.364;2023-02-05T05:28:58;7.30;99.90
23079;DHT22;11707;50.830;4.364;2023-02-05T05:31:24;7.20;99.90
23079;DHT22;11707;50.830;4.364;2023-02-05T05:33:50;7.30;99.90
23079;DHT22;11707;50.830;4.364;2023-02-05T05:36:16;7.30;99.90
23079;DHT22;11707;50.830;4.364;2023-02-05T05:38:42;7.40;99.90
23079;DHT22;11707;50.830;4.364;2023-02-05T05:41:17;7.30;99.90
23079;DHT22;11707;50.830;4.364;2023-02-05T05:44:02;7.20;99.90
23079;DHT22;11707;50.830;4.364;2023-02-05T05:46:27;7.20;99.90
23079;DHT22;11707;50.830;4.364;2023-02-05T05:48:55;7.20;99.90
23079;DHT22;11707;50.830;4.364;2023-02-05T05:51:22;7.20;99.90
23079;DHT22;11707;50.830;4.364;2023-02-05T05:53:48;7.20;99.90
23079;DHT22;11707;50.830;4.364;2023-02-05T05:56:15;7.10;99.90
23079;DHT22;11707;50.830;4.364;2023-02-05T05:58:41;7.10;99.90
23079;DHT22;11707;50.830;4.364;2023-02-05T06:01:08;7.10;99.90
23079;DHT22;11707;50.830;4.364;2023-02-05T06:03:34;7.20;99.90
23079;DHT22;11707;50.830;4.364;2023-02-05T06:06:01;7.20;99.90
23079;DHT22;11707;50.830;4.364;2023-02-05T06:08:26;7.20;99.90
23079;DHT22;11707;50.830;4.364;2023-02-05T06:10:52;7.20;99.90
23079;DHT22;11707;50.830;4.364;2023-02-05T06:13:18;7.20;99.90
23079;DHT22;11707;50.830;4.364;2023-02-05T06:15:43;7.20;99.90
23079;DHT22;11707;50.830;4.364;2023-02-05T06:18:09;7.20;99.90
23079;DHT22;11707;50.830;4.364;2023-02-05T06:20:35;7.20;99.90
23079;DHT22;11707;50.830;4.364;2023-02-05T06:23:01;7.20;99.90
23079;DHT22;11707;50.830;4.364;2023-02-05T06:25:27;7.30;99.90
23079;DHT22;11707;50.830;4.364;2023-02-05T06:27:52;7.30;99.90
23079;DHT22;11707;50.830;4.364;2023-02-05T06:30:18;7.30;99.90
23079;DHT22;11707;50.830;4.364;2023-02-05T06:32:44;7.40;99.90
23079;DHT22;11707;50.830;4.364;2023-02-05T06:35:09;7.50;99.90
23079;DHT22;11707;50.830;4.364;2023-02-05T06:37:35;7.40;99.90
23079;DHT22;11707;50.830;4.364;2023-02-05T06:40:01;7.40;99.90
23079;DHT22;11707;50.830;4.364;2023-02-05T06:42:26;7.50;99.90
23079;DHT22;11707;50.830;4.364;2023-02-05T06:44:53;7.40;99.90
23079;DHT22;11707;50.830;4.364;2023-02-05T06:47:18;7.30;99.90
23079;DHT22;11707;50.830;4.364;2023-02-05T06:49:44;7.40;99.90
23079;DHT22;11707;50.830;4.364;2023-02-05T06:52:10;7.30;99.90
23079;DHT22;11707;50.830;4.364;2023-02-05T06:54:35;7.30;99.90
23079;DHT22;11707;50.830;4.364;2023-02-05T06:57:03;7.30;99.90
23079;DHT22;11707;50.830;4.364;2023-02-05T06:59:29;7.30;99.90
23079;DHT22;11707;50.830;4.364;2023-02-05T07:01:55;7.20;99.90
23079;DHT22;11707;50.830;4.364;2023-02-05T07:04:20;7.20;99.90
23079;DHT22;11707;50.830;4.364;2023-02-05T07:06:46;7.20;99.90
23079;DHT22;11707;50.830;4.364;2023-02-05T07:09:12;7.20;99.90
23079;DHT22;11707;50.830;4.364;2023-02-05T07:11:37;7.30;99.90
23079;DHT22;11707;50.830;4.364;2023-02-05T07:14:03;7.30;99.90
23079;DHT22;11707;50.830;4.364;2023-02-05T07:16:29;7.30;99.90
23079;DHT22;11707;50.830;4.364;2023-02-05T07:18:57;7.30;99.90
23079;DHT22;11707;50.830;4.364;2023-02-05T07:21:22;7.30;99.90
23079;DHT22;11707;50.830;4.364;2023-02-05T07:23:48;7.30;99.90
23079;DHT22;11707;50.830;4.364;2023-02-05T07:26:16;7.30;99.90
23079;DHT22;11707;50.830;4.364;2023-02-05T07:28:42;7.30;99.90
23079;DHT22;11707;50.830;4.364;2023-02-05T07:31:10;7.30;99.90
23079;DHT22;11707;50.830;4.364;2023-02-05T07:33:36;7.40;99.90
23079;DHT22;11707;50.830;4.364;2023-02-05T07:36:04;7.30;99.90
23079;DHT22;11707;50.830;4.364;2023-02-05T07:38:30;7.40;99.90
23079;DHT22;11707;50.830;4.364;2023-02-05T07:40:56;7.40;99.90
23079;DHT22;11707;50.830;4.364;2023-02-05T07:43:22;7.30;99.90
23079;DHT22;11707;50.830;4.364;2023-02-05T07:45:58;7.30;99.90
23079;DHT22;11707;50.830;4.364;2023-02-05T07:48:24;7.40;99.90
23079;DHT22;11707;50.830;4.364;2023-02-05T07:50:50;7.40;99.90
23079;DHT22;11707;50.830;4.364;2023-02-05T07:53:16;7.40;99.90
23079;DHT22;11707;50.830;4.364;2023-02-05T07:55:42;7.30;99.90
23079;DHT22;11707;50.830;4.364;2023-02-05T07:58:08;7.40;99.90
23079;DHT22;11707;50.830;4.364;2023-02-05T08:00:33;7.20;99.90
23079;DHT22;11707;50.830;4.364;2023-02-05T08:03:00;7.20;99.90
23079;DHT22;11707;50.830;4.364;2023-02-05T08:05:25;7.20;99.90
23079;DHT22;11707;50.830;4.364;2023-02-05T08:07:51;7.30;99.90
23079;DHT22;11707;50.830;4.364;2023-02-05T08:10:17;7.20;99.90
23079;DHT22;11707;50.830;4.364;2023-02-05T08:12:43;7.20;99.90
23079;DHT22;11707;50.830;4.364;2023-02-05T08:15:08;7.20;99.90
23079;DHT22;11707;50.830;4.364;2023-02-05T08:17:34;7.30;99.90
23079;DHT22;11707;50.830;4.364;2023-02-05T08:20:00;7.40;99.90
23079;DHT22;11707;50.830;4.364;2023-02-05T08:22:33;7.40;99.90
23079;DHT22;11707;50.830;4.364;2023-02-05T08:24:59;7.30;99.90
23079;DHT22;11707;50.830;4.364;2023-02-05T08:27:25;7.30;99.90
23079;DHT22;11707;50.830;4.364;2023-02-05T08:29:50;7.40;99.90
23079;DHT22;11707;50.830;4.364;2023-02-05T08:32:16;7.40;99.90
23079;DHT22;11707;50.830;4.364;2023-02-05T08:34:42;7.40;99.90
23079;DHT22;11707;50.830;4.364;2023-02-05T08:37:08;7.30;99.90
23079;DHT22;11707;50.830;4.364;2023-02-05T08:39:34;7.30;99.90
23079;DHT22;11707;50.830;4.364;2023-02-05T08:41:59;7.30;99.90
23079;DHT22;11707;50.830;4.364;2023-02-05T08:44:27;7.30;99.90
23079;DHT22;11707;50.830;4.364;2023-02-05T08:46:53;7.30;99.90
23079;DHT22;11707;50.830;4.364;2023-02-05T08:49:19;7.40;99.90
23079;DHT22;11707;50.830;4.364;2023-02-05T08:51:44;7.40;99.90
23079;DHT22;11707;50.830;4.364;2023-02-05T08:54:10;7.40;99.90
23079;DHT22;11707;50.830;4.364;2023-02-05T08:56:42;7.40;99.90
23079;DHT22;11707;50.830;4.364;2023-02-05T08:59:09;7.40;99.90
23079;DHT22;11707;50.830;4.364;2023-02-05T09:01:36;7.40;99.90
23079;DHT22;11707;50.830;4.364;2023-02-05T09:04:13;7.40;99.90
23079;DHT22;11707;50.830;4.364;2023-02-05T09:06:39;7.40;99.90
23079;DHT22;11707;50.830;4.364;2023-02-05T09:09:05;7.40;99.90
23079;DHT22;11707;50.830;4.364;2023-02-05T09:11:31;7.30;99.90
23079;DHT22;11707;50.830;4.364;2023-02-05T09:13:57;7.40;99.90
23079;DHT22;11707;50.830;4.364;2023-02-05T09:16:24;7.40;99.90
23079;DHT22;11707;50.830;4.364;2023-02-05T09:18:53;7.40;99.90
23079;DHT22;11707;50.830;4.364;2023-02-05T09:21:19;7.40;99.90
23079;DHT22;11707;50.830;4.364;2023-02-05T09:23:44;7.40;99.90
23079;DHT22;11707;50.830;4.364;2023-02-05T09:26:10;7.40;99.90
23079;DHT22;11707;50.830;4.364;2023-02-05T09:28:36;7.40;99.90
23079;DHT22;11707;50.830;4.364;2023-02-05T09:31:13;7.50;99.90
23079;DHT22;11707;50.830;4.364;2023-02-05T09:33:39;7.50;99.90
23079;DHT22;11707;50.830;4.364;2023-02-05T09:36:10;7.40;99.90
23079;DHT22;11707;50.830;4.364;2023-02-05T09:38:37;7.20;99.90
23079;DHT22;11707;50.830;4.364;2023-02-05T09:47:26;6.70;99.90
23079;DHT22;11707;50.830;4.364;2023-02-05T09:49:51;6.80;99.90
23079;DHT22;11707;50.830;4.364;2023-02-05T09:52:23;6.90;99.90
23079;DHT22;11707;50.830;4.364;2023-02-05T09:54:59;6.90;99.90
23079;DHT22;11707;50.830;4.364;2023-02-05T09:57:37;7.00;99.90
23079;DHT22;11707;50.830;4.364;2023-02-05T10:02:59;7.10;99.90
23079;DHT22;11707;50.830;4.364;2023-02-05T10:05:29;7.20;99.90
23079;DHT22;11707;50.830;4.364;2023-02-05T10:10:27;7.10;99.90
23079;DHT22;11707;50.830;4.364;2023-02-05T10:13:09;7.00;99.90
23079;DHT22;11707;50.830;4.364;2023-02-05T10:21:27;7.20;99.90
23079;DHT22;11707;50.830;4.364;2023-02-05T10:26:52;7.40;99.90
23079;DHT22;11707;50.830;4.364;2023-02-05T10:30:03;7.50;99.90
23079;DHT22;11707;50.830;4.364;2023-02-05T10:37:51;7.70;99.90
23079;DHT22;11707;50.830;4.364;2023-02-05T10:40:21;7.80;99.90
23079;DHT22;11707;50.830;4.364;2023-02-05T10:42:56;7.80;99.90
23079;DHT22;11707;50.830;4.364;2023-02-05T10:45:29;7.80;99.90
23079;DHT22;11707;50.830;4.364;2023-02-05T10:53:26;7.80;99.90
23079;DHT22;11707;50.830;4.364;2023-02-05T10:55:52;7.90;99.90
23079;DHT22;11707;50.830;4.364;2023-02-05T10:58:33;7.90;99.90
23079;DHT22;11707;50.830;4.364;2023-02-05T11:01:00;7.90;99.90
23079;DHT22;11707;50.830;4.364;2023-02-05T11:03:27;8.00;99.90
23079;DHT22;11707;50.830;4.364;2023-02-05T11:05:53;8.00;99.90
23079;DHT22;11707;50.830;4.364;2023-02-05T11:08:40;8.10;99.90
23079;DHT22;11707;50.830;4.364;2023-02-05T11:11:14;8.20;99.90
23079;DHT22;11707;50.830;4.364;2023-02-05T11:13:49;8.30;99.90
23079;DHT22;11707;50.830;4.364;2023-02-05T11:16:16;8.50;99.90
23079;DHT22;11707;50.830;4.364;2023-02-05T11:18:53;8.40;99.90
23079;DHT22;11707;50.830;4.364;2023-02-05T11:21:22;8.30;99.90
23079;DHT22;11707;50.830;4.364;2023-02-05T11:23:56;8.40;99.90
23079;DHT22;11707;50.830;4.364;2023-02-05T11:26:24;8.30;99.90
23079;DHT22;11707;50.830;4.364;2023-02-05T11:28:50;8.30;99.90
23079;DHT22;11707;50.830;4.364;2023-02-05T11:31:32;8.30;99.90
23079;DHT22;11707;50.830;4.364;2023-02-05T11:34:14;8.30;99.90
23079;DHT22;11707;50.830;4.364;2023-02-05T11:36:51;8.30;99.90
23079;DHT22;11707;50.830;4.364;2023-02-05T11:39:36;8.40;99.90
23079;DHT22;11707;50.830;4.364;2023-02-05T11:42:23;8.40;99.90
23079;DHT22;11707;50.830;4.364;2023-02-05T11:44:55;8.30;99.90
23079;DHT22;11707;50.830;4.364;2023-02-05T11:47:28;8.30;99.90
23079;DHT22;11707;50.830;4.364;2023-02-05T11:49:57;8.40;99.90
23079;DHT22;11707;50.830;4.364;2023-02-05T11:52:29;8.60;99.90
23079;DHT22;11707;50.830;4.364;2023-02-05T11:54:56;8.40;99.90
23079;DHT22;11707;50.830;4.364;2023-02-05T11:57:43;8.40;99.90
23079;DHT22;11707;50.830;4.364;2023-02-05T12:02:36;8.40;99.90
23079;DHT22;11707;50.830;4.364;2023-02-05T12:10:33;8.30;99.90
23079;DHT22;11707;50.830;4.364;2023-02-05T12:13:09;8.40;99.90
23079;DHT22;11707;50.830;4.364;2023-02-05T12:27:20;8.70;99.90
23079;DHT22;11707;50.830;4.364;2023-02-05T12:33:15;8.70;99.90
23079;DHT22;11707;50.830;4.364;2023-02-05T12:43:49;9.00;99.90
23079;DHT22;11707;50.830;4.364;2023-02-05T12:51:58;9.30;99.90
23079;DHT22;11707;50.830;4.364;2023-02-05T12:54:44;9.30;99.90
23079;DHT22;11707;50.830;4.364;2023-02-05T12:57:16;9.30;99.90
23079;DHT22;11707;50.830;4.364;2023-02-05T13:00:01;9.30;99.90
23079;DHT22;11707;50.830;4.364;2023-02-05T13:03:07;9.10;99.90
23079;DHT22;11707;50.830;4.364;2023-02-05T13:05:54;9.00;99.90
23079;DHT22;11707;50.830;4.364;2023-02-05T13:08:39;8.90;99.90
23079;DHT22;11707;50.830;4.364;2023-02-05T13:11:30;8.90;99.90
23079;DHT22;11707;50.830;4.364;2023-02-05T13:17:00;9.20;99.90
23079;DHT22;11707;50.830;4.364;2023-02-05T13:19:37;9.30;99.90
23079;DHT22;11707;50.830;4.364;2023-02-05T13:28:24;9.30;99.90
23079;DHT22;11707;50.830;4.364;2023-02-05T13:33:49;9.00;99.90
23079;DHT22;11707;50.830;4.364;2023-02-05T13:50:24;9.40;99.90
23079;DHT22;11707;50.830;4.364;2023-02-05T13:55:52;9.10;99.90
23079;DHT22;11707;50.830;4.364;2023-02-05T13:58:26;9.20;99.90
23079;DHT22;11707;50.830;4.364;2023-02-05T14:01:14;9.10;99.90
23079;DHT22;11707;50.830;4.364;2023-02-05T14:03:58;9.30;99.90
23079;DHT22;11707;50.830;4.364;2023-02-05T14:06:36;9.70;99.90
23079;DHT22;11707;50.830;4.364;2023-02-05T14:09:36;10.00;99.90
23079;DHT22;11707;50.830;4.364;2023-02-05T14:12:11;10.30;99.90
23079;DHT22;11707;50.830;4.364;2023-02-05T14:14:39;9.60;99.90
23079;DHT22;11707;50.830;4.364;2023-02-05T14:19:56;11.30;99.90
23079;DHT22;11707;50.830;4.364;2023-02-05T14:22:35;11.90;99.90
23079;DHT22;11707;50.830;4.364;2023-02-05T14:25:00;11.90;99.90
23079;DHT22;11707;50.830;4.364;2023-02-05T14:30:31;10.80;99.90
23079;DHT22;11707;50.830;4.364;2023-02-05T14:33:00;10.80;99.90
23079;DHT22;11707;50.830;4.364;2023-02-05T14:38:01;11.10;99.90
23079;DHT22;11707;50.830;4.364;2023-02-05T14:40:34;10.50;99.90
23079;DHT22;11707;50.830;4.364;2023-02-05T14:43:15;9.70;99.90
23079;DHT22;11707;50.830;4.364;2023-02-05T14:45:47;9.40;99.90
23079;DHT22;11707;50.830;4.364;2023-02-05T14:48:41;9.20;99.90
23079;DHT22;11707;50.830;4.364;2023-02-05T14:51:23;9.10;99.90
23079;DHT22;11707;50.830;4.364;2023-02-05T14:53:56;9.10;99.90
23079;DHT22;11707;50.830;4.364;2023-02-05T14:56:30;9.10;99.90
23079;DHT22;11707;50.830;4.364;2023-02-05T14:59:26;9.10;99.90
23079;DHT22;11707;50.830;4.364;2023-02-05T15:01:57;9.10;99.90
23079;DHT22;11707;50.830;4.364;2023-02-05T15:06:52;9.10;99.90
23079;DHT22;11707;50.830;4.364;2023-02-05T15:09:23;9.00;99.90
23079;DHT22;11707;50.830;4.364;2023-02-05T15:12:01;8.90;99.90
23079;DHT22;11707;50.830;4.364;2023-02-05T15:14:50;9.00;99.90
23079;DHT22;11707;50.830;4.364;2023-02-05T15:19:48;9.00;99.90
23079;DHT22;11707;50.830;4.364;2023-02-05T15:22:46;9.10;99.90
23079;DHT22;11707;50.830;4.364;2023-02-05T15:25:40;9.00;99.90
23079;DHT22;11707;50.830;4.364;2023-02-05T15:28:32;9.00;99.90
23079;DHT22;11707;50.830;4.364;2023-02-05T15:31:04;8.90;99.90
23079;DHT22;11707;50.830;4.364;2023-02-05T15:33:41;8.80;99.90
23079;DHT22;11707;50.830;4.364;2023-02-05T15:36:15;8.80;99.90
23079;DHT22;11707;50.830;4.364;2023-02-05T15:38:52;8.80;99.90
23079;DHT22;11707;50.830;4.364;2023-02-05T15:41:22;8.70;99.90
23079;DHT22;11707;50.830;4.364;2023-02-05T15:44:02;8.70;99.90
23079;DHT22;11707;50.830;4.364;2023-02-05T15:46:30;8.80;99.90
23079;DHT22;11707;50.830;4.364;2023-02-05T15:48:58;8.80;99.90
23079;DHT22;11707;50.830;4.364;2023-02-05T15:53:57;9.00;99.90
23079;DHT22;11707;50.830;4.364;2023-02-05T15:56:41;8.80;99.90
23079;DHT22;11707;50.830;4.364;2023-02-05T15:59:24;8.70;99.90
23079;DHT22;11707;50.830;4.364;2023-02-05T16:02:07;8.70;99.90
23079;DHT22;11707;50.830;4.364;2023-02-05T16:04:40;8.70;99.90
23079;DHT22;11707;50.830;4.364;2023-02-05T16:09:50;8.50;99.90
23079;DHT22;11707;50.830;4.364;2023-02-05T16:12:16;8.50;99.90
23079;DHT22;11707;50.830;4.364;2023-02-05T16:14:42;8.40;99.90
23079;DHT22;11707;50.830;4.364;2023-02-05T16:22:51;8.40;99.90
23079;DHT22;11707;50.830;4.364;2023-02-05T16:25:27;8.30;99.90
23079;DHT22;11707;50.830;4.364;2023-02-05T16:27:57;8.30;99.90
23079;DHT22;11707;50.830;4.364;2023-02-05T16:30:30;8.20;99.90
23079;DHT22;11707;50.830;4.364;2023-02-05T16:33:00;8.20;99.90
23079;DHT22;11707;50.830;4.364;2023-02-05T16:35:34;8.20;99.90
23079;DHT22;11707;50.830;4.364;2023-02-05T16:38:01;8.10;99.90
23079;DHT22;11707;50.830;4.364;2023-02-05T16:40:37;8.10;99.90
23079;DHT22;11707;50.830;4.364;2023-02-05T16:43:27;8.10;99.90
23079;DHT22;11707;50.830;4.364;2023-02-05T16:48:32;8.00;99.90
23079;DHT22;11707;50.830;4.364;2023-02-05T16:51:01;7.90;99.90
23079;DHT22;11707;50.830;4.364;2023-02-05T16:53:36;8.00;99.90
23079;DHT22;11707;50.830;4.364;2023-02-05T16:56:20;7.90;99.90
23079;DHT22;11707;50.830;4.364;2023-02-05T16:58:51;8.10;99.90
23079;DHT22;11707;50.830;4.364;2023-02-05T17:01:26;8.10;99.90
23079;DHT22;11707;50.830;4.364;2023-02-05T17:03:54;8.20;99.90
23079;DHT22;11707;50.830;4.364;2023-02-05T17:06:20;8.20;99.90
23079;DHT22;11707;50.830;4.364;2023-02-05T17:08:53;8.30;99.90
23079;DHT22;11707;50.830;4.364;2023-02-05T17:14:30;8.20;99.90
23079;DHT22;11707;50.830;4.364;2023-02-05T17:17:15;8.20;99.90
23079;DHT22;11707;50.830;4.364;2023-02-05T17:19:41;8.30;99.90
23079;DHT22;11707;50.830;4.364;2023-02-05T17:24:44;8.30;99.90
23079;DHT22;11707;50.830;4.364;2023-02-05T17:27:18;8.30;99.90
23079;DHT22;11707;50.830;4.364;2023-02-05T17:29:49;8.20;99.90
23079;DHT22;11707;50.830;4.364;2023-02-05T17:32:16;8.00;99.90
23079;DHT22;11707;50.830;4.364;2023-02-05T17:34:46;8.00;99.90
23079;DHT22;11707;50.830;4.364;2023-02-05T17:37:12;7.90;99.90
23079;DHT22;11707;50.830;4.364;2023-02-05T17:39:39;7.80;99.90
23079;DHT22;11707;50.830;4.364;2023-02-05T17:42:05;7.80;99.90
23079;DHT22;11707;50.830;4.364;2023-02-05T17:44:35;7.70;99.90
23079;DHT22;11707;50.830;4.364;2023-02-05T17:47:03;7.90;99.90
23079;DHT22;11707;50.830;4.364;2023-02-05T17:49:29;7.90;99.90
23079;DHT22;11707;50.830;4.364;2023-02-05T17:51:55;7.90;99.90
23079;DHT22;11707;50.830;4.364;2023-02-05T17:54:22;7.90;99.90
23079;DHT22;11707;50.830;4.364;2023-02-05T17:56:51;7.90;99.90
23079;DHT22;11707;50.830;4.364;2023-02-05T17:59:20;7.80;99.90
23079;DHT22;11707;50.830;4.364;2023-02-05T18:01:47;7.90;99.90
23079;DHT22;11707;50.830;4.364;2023-02-05T18:04:14;8.00;99.90
23079;DHT22;11707;50.830;4.364;2023-02-05T18:06:40;7.80;99.90
23079;DHT22;11707;50.830;4.364;2023-02-05T18:09:08;7.80;99.90
23079;DHT22;11707;50.830;4.364;2023-02-05T18:11:35;7.80;99.90
23079;DHT22;11707;50.830;4.364;2023-02-05T18:14:01;7.70;99.90
23079;DHT22;11707;50.830;4.364;2023-02-05T18:16:27;7.70;99.90
23079;DHT22;11707;50.830;4.364;2023-02-05T18:18:52;7.70;99.90
23079;DHT22;11707;50.830;4.364;2023-02-05T18:21:18;7.60;99.90
23079;DHT22;11707;50.830;4.364;2023-02-05T18:23:46;7.60;99.90
23079;DHT22;11707;50.830;4.364;2023-02-05T18:26:13;7.50;99.90
23079;DHT22;11707;50.830;4.364;2023-02-05T18:28:39;7.50;99.90
23079;DHT22;11707;50.830;4.364;2023-02-05T18:31:08;7.50;99.90
23079;DHT22;11707;50.830;4.364;2023-02-05T18:33:34;7.60;99.90
23079;DHT22;11707;50.830;4.364;2023-02-05T18:36:05;7.50;99.90
23079;DHT22;11707;50.830;4.364;2023-02-05T18:38:33;7.50;99.90